createdAt,value
2018-07-19T00:02:13.390Z,3.50
2018-07-19T00:04:42.600Z,2.40
2018-07-19T00:07:11.732Z,3.43
2018-07-19T00:09:40.869Z,2.57
2018-07-19T00:12:09.957Z,2.40
2018-07-19T00:14:39.074Z,2.93
2018-07-19T00:17:08.649Z,2.70
2018-07-19T00:19:37.725Z,2.83
2018-07-19T00:22:06.942Z,2.67
2018-07-19T00:24:36.031Z,2.10
2018-07-19T00:27:05.103Z,2.63
2018-07-19T00:29:34.174Z,2.70
2018-07-19T00:32:03.380Z,2.50
2018-07-19T00:34:32.548Z,2.90
2018-07-19T00:37:01.720Z,2.97
2018-07-19T00:39:30.833Z,2.97
2018-07-19T00:41:59.936Z,2.67
2018-07-19T00:44:29.082Z,2.67
2018-07-19T00:46:58.210Z,2.97
2018-07-19T00:49:27.440Z,2.80
2018-07-19T00:51:56.581Z,2.87
2018-07-19T00:54:25.694Z,3.10
2018-07-19T00:56:54.831Z,3.30
2018-07-19T00:59:23.918Z,3.03
2018-07-19T01:01:53.040Z,3.10
2018-07-19T01:04:22.171Z,2.97
2018-07-19T01:06:51.354Z,3.00
2018-07-19T01:09:20.530Z,2.90
2018-07-19T01:11:49.468Z,2.90
2018-07-19T01:14:18.618Z,3.30
2018-07-19T01:16:47.853Z,3.53
2018-07-19T01:19:17.033Z,3.90
2018-07-19T01:21:46.155Z,3.87
2018-07-19T01:24:15.270Z,3.20
2018-07-19T01:26:44.349Z,3.30
2018-07-19T01:29:13.503Z,3.20
2018-07-19T01:31:42.625Z,3.30
2018-07-19T01:34:11.681Z,2.73
2018-07-19T01:36:40.868Z,3.17
2018-07-19T01:39:11.386Z,3.37
2018-07-19T01:42:35.533Z,3.90
2018-07-19T01:45:05.846Z,3.13
2018-07-19T01:47:34.963Z,3.80
2018-07-19T01:50:04.782Z,2.80
2018-07-19T01:52:33.933Z,2.93
2018-07-19T01:55:03.035Z,4.00
2018-07-19T01:57:32.173Z,3.53
2018-07-19T02:00:01.362Z,3.03
2018-07-19T02:02:30.511Z,3.80
2018-07-19T02:04:59.649Z,3.67
2018-07-19T02:07:28.773Z,3.30
2018-07-19T02:09:57.926Z,3.30
2018-07-19T02:12:27.092Z,3.30
2018-07-19T02:14:56.162Z,3.50
2018-07-19T02:17:25.277Z,4.27
2018-07-19T02:19:54.371Z,3.20
2018-07-19T02:22:23.489Z,4.03
2018-07-19T02:24:52.697Z,3.27
2018-07-19T02:27:21.918Z,3.73
2018-07-19T02:29:51.012Z,3.97
2018-07-19T02:32:20.122Z,3.30
2018-07-19T02:34:49.289Z,3.73
2018-07-19T02:37:18.443Z,3.67
2018-07-19T02:39:47.594Z,3.63
2018-07-19T02:42:16.688Z,3.20
2018-07-19T02:44:45.807Z,4.17
2018-07-19T02:47:14.954Z,3.53
2018-07-19T02:49:44.123Z,3.80
2018-07-19T02:52:13.292Z,3.87
2018-07-19T02:54:42.433Z,4.10
2018-07-19T02:57:11.595Z,4.47
2018-07-19T02:59:40.781Z,3.20
2018-07-19T03:02:09.952Z,4.63
2018-07-19T03:04:39.026Z,3.40
2018-07-19T03:07:08.179Z,3.20
2018-07-19T03:09:37.364Z,4.07
2018-07-19T03:12:06.493Z,4.33
2018-07-19T03:14:35.644Z,3.60
2018-07-19T03:17:04.789Z,4.50
2018-07-19T03:19:33.927Z,4.40
2018-07-19T03:22:03.009Z,3.60
2018-07-19T03:24:32.173Z,4.03
2018-07-19T03:27:01.351Z,4.20
2018-07-19T03:29:30.494Z,5.20
2018-07-19T03:31:59.617Z,4.30
2018-07-19T03:34:28.751Z,4.27
2018-07-19T03:36:57.914Z,4.33
2018-07-19T03:39:27.009Z,4.30
2018-07-19T03:41:56.133Z,4.30
2018-07-19T03:44:25.250Z,4.17
2018-07-19T03:46:54.313Z,4.10
2018-07-19T03:49:23.430Z,3.80
2018-07-19T03:51:52.542Z,4.27
2018-07-19T03:54:21.686Z,3.20
2018-07-19T03:56:50.819Z,3.60
2018-07-19T03:59:19.930Z,4.03
2018-07-19T04:01:49.115Z,4.63
2018-07-19T04:04:18.211Z,3.30
2018-07-19T04:06:47.369Z,3.87
2018-07-19T04:09:16.624Z,3.83
2018-07-19T04:11:45.773Z,4.10
2018-07-19T04:14:14.912Z,3.77
2018-07-19T04:16:44.058Z,3.60
2018-07-19T04:19:13.126Z,3.20
2018-07-19T04:21:42.286Z,4.10
2018-07-19T04:24:11.419Z,3.13
2018-07-19T04:26:40.562Z,3.07
2018-07-19T04:29:09.669Z,3.53
2018-07-19T04:31:38.800Z,3.20
2018-07-19T04:34:07.927Z,3.20
2018-07-19T04:36:36.998Z,3.13
2018-07-19T04:39:08.373Z,4.07
2018-07-19T04:41:37.474Z,3.20
2018-07-19T04:44:06.668Z,3.23
2018-07-19T04:46:35.881Z,2.93
2018-07-19T04:49:04.971Z,3.50
2018-07-19T04:51:34.107Z,3.70
2018-07-19T04:54:03.253Z,2.90
2018-07-19T04:56:32.393Z,3.00
2018-07-19T04:59:01.510Z,3.87
2018-07-19T05:01:30.643Z,3.30
2018-07-19T05:03:59.811Z,3.60
2018-07-19T05:06:28.883Z,3.33
2018-07-19T05:08:58.020Z,3.73
2018-07-19T05:11:27.279Z,3.73
2018-07-19T05:13:56.426Z,3.23
2018-07-19T05:16:25.562Z,2.93
2018-07-19T05:18:54.703Z,3.13
2018-07-19T05:21:23.788Z,2.70
2018-07-19T05:23:52.896Z,3.60
2018-07-19T05:26:22.037Z,3.60
2018-07-19T05:28:51.117Z,2.90
2018-07-19T05:31:20.345Z,3.20
2018-07-19T05:33:49.490Z,3.10
2018-07-19T05:36:18.573Z,3.40
2018-07-19T05:38:47.691Z,3.07
2018-07-19T05:41:16.853Z,2.97
2018-07-19T05:43:45.999Z,3.47
2018-07-19T05:46:15.173Z,2.73
2018-07-19T05:48:44.380Z,3.07
2018-07-19T05:51:13.511Z,3.33
2018-07-19T05:53:42.654Z,2.60
2018-07-19T05:56:11.814Z,2.10
2018-07-19T05:58:40.941Z,1.80
2018-07-19T06:01:10.072Z,2.07
2018-07-19T06:03:39.202Z,2.10
2018-07-19T06:06:08.350Z,1.87
2018-07-19T06:08:37.475Z,1.60
2018-07-19T06:11:07.228Z,1.67
2018-07-19T06:13:36.375Z,1.70
2018-07-19T06:16:05.569Z,1.47
2018-07-19T06:18:34.709Z,1.57
2018-07-19T06:21:03.857Z,1.47
2018-07-19T06:23:32.954Z,1.90
2018-07-19T06:26:02.056Z,1.60
2018-07-19T06:28:31.155Z,1.87
2018-07-19T06:31:00.278Z,1.10
2018-07-19T06:33:29.566Z,1.93
2018-07-19T06:35:59.211Z,1.43
2018-07-19T06:38:28.414Z,3.47
2018-07-19T06:40:57.541Z,1.10
2018-07-19T06:43:26.634Z,1.20
2018-07-19T06:45:55.802Z,1.50
2018-07-19T06:48:24.903Z,1.10
2018-07-19T06:50:54.026Z,1.13
2018-07-19T06:53:23.136Z,1.57
2018-07-19T06:55:52.229Z,1.97
2018-07-19T06:58:21.336Z,1.50
2018-07-19T07:00:51.420Z,1.77
2018-07-19T07:03:20.561Z,1.83
2018-07-19T07:05:49.650Z,2.40
2018-07-19T07:08:18.764Z,2.50
2018-07-19T07:10:48.940Z,2.70
2018-07-19T07:13:18.090Z,3.23
2018-07-19T07:15:47.156Z,2.30
2018-07-19T07:18:16.227Z,1.83
2018-07-19T07:20:47.159Z,2.03
2018-07-19T07:23:16.358Z,2.50
2018-07-19T07:25:52.159Z,1.83
2018-07-19T07:28:22.703Z,2.50
2018-07-19T07:30:51.700Z,2.30
2018-07-19T07:33:21.059Z,2.37
2018-07-19T07:35:50.554Z,3.40
2018-07-19T07:38:20.190Z,3.13
2018-07-19T07:40:49.714Z,2.80
2018-07-19T07:43:18.813Z,2.70
2018-07-19T07:45:47.874Z,2.07
2018-07-19T07:48:16.958Z,2.50
2018-07-19T07:50:46.030Z,2.53
2018-07-19T07:53:15.234Z,3.80
2018-07-19T07:55:44.380Z,3.03
2018-07-19T07:58:13.519Z,2.70
2018-07-19T08:00:42.624Z,2.57
2018-07-19T08:03:11.729Z,3.63
2018-07-19T08:05:40.854Z,2.33
2018-07-19T08:08:09.912Z,2.10
2018-07-19T08:10:39.019Z,2.63
2018-07-19T08:13:08.174Z,2.37
2018-07-19T08:15:37.453Z,2.70
2018-07-19T08:18:06.539Z,2.30
2018-07-19T08:20:35.696Z,2.23
2018-07-19T08:23:04.770Z,2.27
2018-07-19T08:25:33.901Z,2.80
2018-07-19T08:28:03.054Z,2.53
2018-07-19T08:30:32.200Z,2.80
2018-07-19T08:33:01.298Z,2.30
2018-07-19T08:35:30.416Z,2.00
2018-07-19T08:37:59.489Z,2.80
2018-07-19T08:40:28.650Z,2.67
2018-07-19T08:42:57.758Z,1.90
2018-07-19T08:45:26.920Z,2.37
2018-07-19T08:47:56.046Z,2.23
2018-07-19T08:50:25.159Z,2.57
2018-07-19T08:52:54.265Z,3.37
2018-07-19T08:55:23.332Z,2.77
2018-07-19T08:57:52.392Z,2.23
2018-07-19T09:00:21.526Z,2.17
2018-07-19T09:02:50.677Z,1.83
2018-07-19T09:05:19.755Z,1.53
2018-07-19T09:07:48.914Z,1.00
2018-07-19T09:10:18.301Z,1.30
2018-07-19T09:12:47.403Z,1.03
2018-07-19T09:15:16.536Z,1.00
2018-07-19T09:17:45.704Z,1.17
2018-07-19T09:20:14.830Z,1.00
2018-07-19T09:22:44.029Z,1.73
2018-07-19T09:25:13.161Z,1.03
2018-07-19T09:27:42.279Z,1.30
2018-07-19T09:30:11.397Z,0.70
2018-07-19T09:32:40.529Z,0.80
2018-07-19T09:35:09.895Z,0.60
2018-07-19T09:37:39.020Z,1.43
2018-07-19T09:40:08.153Z,0.57
2018-07-19T09:42:37.541Z,0.70
2018-07-19T09:45:06.722Z,0.77
2018-07-19T09:47:35.821Z,0.90
2018-07-19T09:50:04.833Z,0.80
2018-07-19T09:52:33.950Z,0.60
2018-07-19T09:55:03.482Z,0.60
2018-07-19T09:57:33.050Z,0.70
2018-07-19T10:00:02.154Z,0.60
2018-07-19T10:02:31.265Z,0.57
2018-07-19T10:05:00.420Z,0.83
2018-07-19T10:07:29.518Z,0.90
2018-07-19T10:09:58.489Z,0.80
2018-07-19T10:12:27.562Z,0.70
2018-07-19T10:14:56.624Z,0.90
2018-07-19T10:17:25.758Z,0.60
2018-07-19T10:19:54.861Z,0.77
2018-07-19T10:22:23.996Z,0.57
2018-07-19T10:24:53.140Z,0.80
2018-07-19T10:27:22.250Z,0.60
2018-07-19T10:29:51.380Z,0.87
2018-07-19T10:32:20.619Z,0.90
2018-07-19T10:34:49.714Z,1.20
2018-07-19T10:37:18.886Z,1.10
2018-07-19T10:39:47.982Z,1.67
2018-07-19T10:42:31.541Z,1.50
2018-07-19T10:45:01.557Z,1.20
2018-07-19T10:47:30.629Z,1.07
2018-07-19T10:49:59.777Z,1.10
2018-07-19T10:52:28.891Z,1.20
2018-07-19T10:54:57.997Z,1.13
2018-07-19T10:57:27.126Z,1.30
2018-07-19T10:59:56.221Z,1.83
2018-07-19T11:02:25.289Z,1.27
2018-07-19T11:04:54.241Z,1.47
2018-07-19T11:07:23.304Z,1.30
2018-07-19T11:09:52.452Z,1.27
2018-07-19T11:12:21.567Z,1.60
2018-07-19T11:14:50.662Z,1.00
2018-07-19T11:17:19.761Z,1.40
2018-07-19T11:19:48.874Z,1.00
2018-07-19T11:22:17.980Z,1.87
2018-07-19T11:24:47.130Z,1.20
2018-07-19T11:27:16.330Z,1.37
2018-07-19T11:29:45.399Z,1.20
2018-07-19T11:32:14.525Z,0.80
2018-07-19T11:34:43.646Z,1.23
2018-07-19T11:37:12.724Z,1.20
2018-07-19T11:39:41.649Z,1.47
2018-07-19T11:42:10.721Z,1.20
2018-07-19T11:44:39.802Z,1.23
2018-07-19T11:47:08.913Z,1.23
2018-07-19T11:49:38.053Z,1.33
2018-07-19T11:52:07.506Z,1.30
2018-07-19T11:54:36.589Z,1.40
2018-07-19T11:57:05.657Z,1.80
2018-07-19T11:59:34.779Z,1.57
2018-07-19T12:02:03.893Z,1.07
2018-07-19T12:04:33.046Z,1.30
2018-07-19T12:07:02.149Z,1.50
2018-07-19T12:09:31.266Z,2.07
2018-07-19T12:12:00.422Z,1.40
2018-07-19T12:14:29.638Z,1.57
2018-07-19T12:16:58.705Z,1.60
2018-07-19T12:19:27.784Z,2.13
2018-07-19T12:21:56.954Z,1.50
2018-07-19T12:24:26.078Z,1.70
2018-07-19T12:26:55.154Z,1.70
2018-07-19T12:29:24.290Z,1.93
2018-07-19T12:31:53.435Z,1.87
2018-07-19T12:34:22.673Z,1.40
2018-07-19T12:36:51.736Z,1.90
2018-07-19T12:39:20.822Z,1.53
2018-07-19T12:41:49.906Z,2.30
2018-07-19T12:44:19.005Z,2.40
2018-07-19T12:46:48.109Z,2.50
2018-07-19T12:49:17.594Z,2.43
2018-07-19T12:51:46.723Z,1.80
2018-07-19T12:54:15.801Z,1.90
2018-07-19T12:56:44.995Z,2.10
2018-07-19T12:59:14.096Z,1.40
2018-07-19T13:01:46.056Z,2.23
2018-07-19T13:04:15.213Z,2.33
2018-07-19T13:06:44.736Z,1.53
2018-07-19T13:09:13.851Z,1.50
2018-07-19T13:11:43.021Z,2.37
2018-07-19T13:14:12.863Z,2.30
2018-07-19T13:16:42.147Z,2.77
2018-07-19T13:19:11.364Z,3.10
2018-07-19T13:21:40.449Z,2.57
2018-07-19T13:24:09.653Z,2.60
2018-07-19T13:26:38.984Z,2.57
2018-07-19T13:29:08.095Z,2.30
2018-07-19T13:31:37.265Z,2.17
2018-07-19T13:34:06.341Z,2.07
2018-07-19T13:36:35.533Z,2.77
2018-07-19T13:39:06.846Z,1.90
2018-07-19T13:41:36.018Z,2.50
2018-07-19T13:44:05.203Z,1.70
2018-07-19T13:46:34.295Z,1.90
2018-07-19T13:49:03.341Z,2.53
2018-07-19T13:51:32.475Z,2.50
2018-07-19T13:54:13.282Z,2.30
2018-07-19T13:56:42.729Z,2.50
2018-07-19T13:59:11.931Z,2.20
2018-07-19T14:01:41.398Z,3.10
2018-07-19T14:04:11.106Z,2.70
2018-07-19T14:06:40.495Z,2.47
2018-07-19T14:09:13.813Z,2.30
2018-07-19T14:11:42.876Z,2.40
2018-07-19T14:14:11.966Z,2.33
2018-07-19T14:16:41.021Z,2.33
2018-07-19T14:19:10.170Z,2.73
2018-07-19T14:21:39.337Z,2.57
2018-07-19T14:24:08.438Z,2.20
2018-07-19T14:26:37.517Z,2.70
2018-07-19T14:29:06.705Z,2.10
2018-07-19T14:31:35.790Z,2.30
2018-07-19T14:34:04.868Z,2.50
2018-07-19T14:36:33.943Z,2.40
2018-07-19T14:39:03.010Z,2.60
2018-07-19T14:41:32.106Z,2.60
2018-07-19T14:44:01.169Z,1.93
2018-07-19T14:46:30.210Z,2.93
2018-07-19T14:48:59.352Z,2.43
2018-07-19T14:51:28.496Z,2.77
2018-07-19T14:53:57.595Z,2.00
2018-07-19T14:56:26.736Z,2.40
2018-07-19T14:58:55.883Z,2.70
2018-07-19T15:01:24.958Z,2.40
2018-07-19T15:03:54.099Z,3.00
2018-07-19T15:06:23.196Z,2.97
2018-07-19T15:08:52.339Z,2.67
2018-07-19T15:11:21.441Z,2.70
2018-07-19T15:13:50.502Z,2.43
2018-07-19T15:16:19.908Z,3.00
2018-07-19T15:18:49.043Z,2.33
2018-07-19T15:21:18.178Z,3.30
2018-07-19T15:23:47.292Z,3.17
2018-07-19T15:26:16.437Z,2.60
2018-07-19T15:28:45.541Z,2.83
2018-07-19T15:31:14.910Z,2.67
2018-07-19T15:33:44.121Z,3.00
2018-07-19T15:36:13.221Z,3.00
2018-07-19T15:38:42.334Z,2.83
2018-07-19T15:41:11.417Z,2.90
2018-07-19T15:43:40.508Z,2.60
2018-07-19T15:46:09.644Z,2.60
2018-07-19T15:48:38.736Z,2.80
2018-07-19T15:51:07.793Z,2.43
2018-07-19T15:53:36.948Z,2.20
2018-07-19T15:56:06.096Z,2.03
2018-07-19T15:58:35.218Z,2.70
2018-07-19T16:01:04.404Z,2.30
2018-07-19T16:03:33.563Z,2.50
2018-07-19T16:06:02.630Z,2.87
2018-07-19T16:08:31.761Z,2.33
2018-07-19T16:11:00.873Z,2.70
2018-07-19T16:13:29.946Z,2.57
2018-07-19T16:15:59.069Z,2.70
2018-07-19T16:18:28.153Z,2.07
2018-07-19T16:20:57.231Z,2.50
2018-07-19T16:23:26.534Z,2.50
2018-07-19T16:25:55.647Z,2.83
2018-07-19T16:28:24.709Z,2.33
2018-07-19T16:30:53.846Z,2.23
2018-07-19T16:33:22.893Z,2.43
2018-07-19T16:35:52.020Z,2.70
2018-07-19T16:38:21.339Z,2.63
2018-07-19T16:40:50.545Z,2.23
2018-07-19T16:43:19.647Z,2.50
2018-07-19T16:45:48.792Z,2.50
2018-07-19T16:48:17.962Z,2.90
2018-07-19T16:50:47.065Z,2.83
2018-07-19T16:53:16.146Z,2.47
2018-07-19T16:55:45.251Z,2.20
2018-07-19T16:58:14.345Z,2.73
2018-07-19T17:00:43.474Z,2.50
2018-07-19T17:03:12.667Z,2.40
2018-07-19T17:05:41.801Z,2.80
2018-07-19T17:08:10.894Z,2.00
2018-07-19T17:10:40.105Z,2.03
2018-07-19T17:13:09.149Z,2.57
2018-07-19T17:15:38.218Z,2.20
2018-07-19T17:18:07.543Z,2.50
2018-07-19T17:20:36.647Z,2.40
2018-07-19T17:23:05.895Z,2.67
2018-07-19T17:25:34.974Z,2.73
2018-07-19T17:28:04.114Z,2.70
2018-07-19T17:30:33.170Z,2.67
2018-07-19T17:33:02.334Z,2.27
2018-07-19T17:35:31.402Z,2.90
2018-07-19T17:38:00.546Z,2.50
2018-07-19T17:40:29.649Z,2.73
2018-07-19T17:42:58.768Z,3.37
2018-07-19T17:45:27.899Z,2.60
2018-07-19T17:47:56.966Z,2.40
2018-07-19T17:50:26.069Z,2.60
2018-07-19T17:52:55.336Z,2.30
2018-07-19T17:55:24.474Z,2.70
2018-07-19T17:57:53.590Z,3.03
2018-07-19T18:00:22.693Z,2.53
2018-07-19T18:02:51.782Z,3.00
2018-07-19T18:05:20.897Z,2.30
2018-07-19T18:07:49.976Z,1.97
2018-07-19T18:10:19.106Z,2.83
2018-07-19T18:12:48.242Z,3.13
2018-07-19T18:15:17.406Z,2.70
2018-07-19T18:17:46.598Z,2.93
2018-07-19T18:20:15.722Z,2.60
2018-07-19T18:22:44.780Z,2.60
2018-07-19T18:25:13.899Z,2.90
2018-07-19T18:27:43.055Z,3.00
2018-07-19T18:30:12.167Z,2.63
2018-07-19T18:32:41.279Z,3.27
2018-07-19T18:35:10.418Z,3.47
2018-07-19T18:37:39.589Z,2.50
2018-07-19T18:40:08.718Z,3.10
2018-07-19T18:42:37.798Z,2.20
2018-07-19T18:45:06.867Z,2.30
2018-07-19T18:47:35.925Z,3.10
2018-07-19T18:50:04.999Z,2.70
2018-07-19T18:52:34.178Z,2.63
2018-07-19T18:55:03.255Z,2.77
2018-07-19T18:57:32.389Z,3.53
2018-07-19T19:00:01.553Z,2.73
2018-07-19T19:02:30.699Z,2.57
2018-07-19T19:04:59.790Z,2.30
2018-07-19T19:07:28.903Z,3.80
2018-07-19T19:09:58.010Z,3.00
2018-07-19T19:12:27.061Z,3.00
2018-07-19T19:14:56.208Z,2.70
2018-07-19T19:17:25.306Z,3.27
2018-07-19T19:19:54.380Z,3.00
2018-07-19T19:22:23.468Z,3.00
2018-07-19T19:24:52.633Z,3.20
2018-07-19T19:27:21.764Z,2.80
2018-07-19T19:29:50.854Z,3.40
2018-07-19T19:32:20.019Z,2.77
2018-07-19T19:34:49.172Z,2.97
2018-07-19T19:37:18.282Z,3.27
2018-07-19T19:39:47.417Z,3.13
2018-07-19T19:42:16.535Z,3.20
2018-07-19T19:44:45.597Z,2.73
2018-07-19T19:47:14.788Z,2.40
2018-07-19T19:49:43.895Z,2.50
2018-07-19T19:52:12.990Z,2.60
2018-07-19T19:54:42.129Z,2.33
2018-07-19T19:57:11.210Z,2.87
2018-07-19T19:59:40.349Z,2.30
2018-07-19T20:02:09.458Z,2.67
2018-07-19T20:04:38.591Z,2.63
2018-07-19T20:07:07.720Z,2.37
2018-07-19T20:09:36.799Z,3.40
2018-07-19T20:12:05.706Z,2.60
2018-07-19T20:14:34.838Z,3.10
2018-07-19T20:17:03.969Z,2.73
2018-07-19T20:19:33.158Z,2.60
2018-07-19T20:22:02.222Z,3.00
2018-07-19T20:24:31.337Z,2.40
2018-07-19T20:27:00.405Z,3.20
2018-07-19T20:29:29.520Z,2.90
2018-07-19T20:31:58.642Z,2.80
2018-07-19T20:34:27.728Z,2.50
2018-07-19T20:36:56.852Z,2.77
2018-07-19T20:39:25.958Z,2.70
2018-07-19T20:41:55.074Z,2.47
2018-07-19T20:44:24.141Z,3.30
2018-07-19T20:46:53.242Z,3.00
2018-07-19T20:49:22.362Z,2.63
2018-07-19T20:51:51.476Z,2.53
2018-07-19T20:54:20.530Z,2.77
2018-07-19T20:56:49.725Z,2.87
2018-07-19T20:59:18.834Z,3.07
2018-07-19T21:01:47.969Z,2.80
2018-07-19T21:04:17.065Z,3.73
2018-07-19T21:06:46.288Z,3.00
2018-07-19T21:09:15.432Z,2.80
2018-07-19T21:11:44.578Z,2.47
2018-07-19T21:14:13.693Z,2.80
2018-07-19T21:16:42.821Z,2.90
2018-07-19T21:19:11.929Z,3.77
2018-07-19T21:21:41.063Z,3.30
2018-07-19T21:24:10.235Z,2.70
2018-07-19T21:26:39.418Z,3.10
2018-07-19T21:29:08.478Z,3.30
2018-07-19T21:31:37.584Z,3.20
2018-07-19T21:34:06.692Z,3.20
2018-07-19T21:36:35.818Z,2.70
2018-07-19T21:39:08.223Z,3.27
2018-07-19T21:41:37.367Z,2.90
2018-07-19T21:44:06.743Z,3.37
2018-07-19T21:46:35.807Z,3.60
2018-07-19T21:49:05.327Z,3.30
2018-07-19T21:51:34.478Z,2.80
2018-07-19T21:54:03.611Z,2.90
2018-07-19T21:56:32.716Z,3.37
2018-07-19T21:59:01.669Z,2.60
2018-07-19T22:01:30.756Z,3.13
2018-07-19T22:03:59.878Z,4.27
2018-07-19T22:06:29.013Z,3.40
2018-07-19T22:08:58.146Z,3.33
2018-07-19T22:11:27.250Z,3.63
2018-07-19T22:13:56.424Z,3.20
2018-07-19T22:16:25.598Z,3.10
2018-07-19T22:18:54.683Z,3.37
2018-07-19T22:21:23.770Z,3.87
2018-07-19T22:23:52.849Z,3.20
2018-07-19T22:26:21.915Z,3.67
2018-07-19T22:28:51.042Z,3.50
2018-07-19T22:31:20.465Z,3.57
2018-07-19T22:33:50.043Z,3.23
2018-07-19T22:36:19.464Z,3.60
2018-07-19T22:38:48.845Z,3.10
2018-07-19T22:41:18.002Z,4.00
2018-07-19T22:43:47.131Z,2.90
2018-07-19T22:46:16.247Z,3.23
2018-07-19T22:48:45.379Z,3.47
2018-07-19T22:51:14.502Z,3.73
2018-07-19T22:53:43.647Z,3.70
2018-07-19T22:56:12.693Z,3.60
2018-07-19T22:58:41.819Z,3.07
2018-07-19T23:01:10.938Z,3.43
2018-07-19T23:03:40.167Z,3.70
2018-07-19T23:06:09.316Z,4.10
2018-07-19T23:08:38.492Z,3.40
2018-07-19T23:11:07.652Z,3.50
2018-07-19T23:13:36.776Z,3.53
2018-07-19T23:16:05.890Z,3.73
2018-07-19T23:18:34.998Z,3.27
2018-07-19T23:21:04.157Z,3.40
2018-07-19T23:23:33.266Z,3.30
2018-07-19T23:26:02.360Z,3.77
2018-07-19T23:28:31.430Z,3.80
2018-07-19T23:31:00.553Z,3.70
2018-07-19T23:33:29.703Z,3.30
2018-07-19T23:37:03.907Z,4.73
2018-07-19T23:39:36.533Z,9.97
2018-07-19T23:43:08.739Z,16.80
2018-07-19T23:45:43.273Z,8.70
2018-07-19T23:48:12.460Z,8.53
2018-07-19T23:50:41.571Z,8.20
2018-07-19T23:53:10.722Z,8.93
2018-07-19T23:55:39.785Z,8.27
2018-07-19T23:58:08.867Z,7.40
